Time;durP1;ratioP1;P1;durP2;ratioP2;P2;SDS_P1;SDS_P2;PMS_P1;PMS_P2;Temp;Humidity;BMP_temperature;BMP_pressure;BME280_temperature;BME280_humidity;BME280_pressure;Samples;Min_cycle;Max_cycle;Signal;HPM_P1;HPM_P2
2023/07/10 00:00:38;;;;;;;;;;;21.00;91.50;;;;;;6216319;23;19904;-83
2023/07/10 00:03:08;;;;;;;;;;;21.00;91.50;;;;;;6215941;23;19900;-83
2023/07/10 00:05:33;;;;;;;;;;;21.00;91.50;;;;;;6215227;23;20231;-83
2023/07/10 00:07:59;;;;;;;;;;;21.00;91.50;;;;;;6216263;23;19900;-85
2023/07/10 00:10:25;;;;;;;;;;;21.00;91.50;;;;;;6216560;23;20365;-83
2023/07/10 00:12:50;;;;;;;;;;;21.00;91.50;;;;;;6215018;23;20026;-87
2023/07/10 00:15:18;;;;;;;;;;;21.10;91.50;;;;;;6214629;23;19904;-84
2023/07/10 00:17:45;;;;;;;;;;;21.00;91.50;;;;;;6215334;23;19908;-86
2023/07/10 00:20:14;;;;;;;;;;;21.00;91.60;;;;;;6219562;23;19900;-85
2023/07/10 00:22:40;;;;;;;;;;;21.10;91.60;;;;;;6217477;23;19978;-83
2023/07/10 00:25:05;;;;;;;;;;;21.10;91.60;;;;;;6217874;23;20063;-85
2023/07/10 00:27:31;;;;;;;;;;;21.00;91.60;;;;;;6219003;23;19911;-84
2023/07/10 00:29:56;;;;;;;;;;;21.10;91.70;;;;;;6218947;23;19906;-84
2023/07/10 00:32:22;;;;;;;;;;;21.00;91.60;;;;;;6217358;23;19899;-86
2023/07/10 00:34:47;;;;;;;;;;;21.00;91.80;;;;;;6216730;23;19946;-83
2023/07/10 00:37:12;;;;;;;;;;;21.00;91.80;;;;;;6215502;23;19911;-85
2023/07/10 00:39:38;;;;;;;;;;;21.00;91.90;;;;;;6219115;23;19911;-85
2023/07/10 00:42:10;;;;;;;;;;;21.00;91.70;;;;;;6217474;23;19946;-85
2023/07/10 00:44:37;;;;;;;;;;;21.00;91.90;;;;;;6218448;23;19912;-84
2023/07/10 00:47:05;;;;;;;;;;;20.90;91.80;;;;;;6217654;23;19917;-85
2023/07/10 00:49:52;;;;;;;;;;;20.90;91.90;;;;;;6216893;23;19946;-84
2023/07/10 00:52:20;;;;;;;;;;;21.00;91.90;;;;;;6216382;23;20314;-84
2023/07/10 00:54:48;;;;;;;;;;;21.00;91.90;;;;;;6216654;23;19904;-84
2023/07/10 00:57:33;;;;;;;;;;;20.90;91.80;;;;;;6216994;23;19918;-85
2023/07/10 01:00:14;;;;;;;;;;;20.90;91.90;;;;;;6217339;23;19900;-85
2023/07/10 01:02:39;;;;;;;;;;;20.90;91.80;;;;;;6216332;23;19955;-84
2023/07/10 01:05:05;;;;;;;;;;;20.90;91.90;;;;;;6217904;23;19904;-84
2023/07/10 01:07:33;;;;;;;;;;;20.90;91.70;;;;;;6215609;23;19903;-88
2023/07/10 01:10:04;;;;;;;;;;;20.90;91.70;;;;;;6216214;23;19904;-84
2023/07/10 01:12:31;;;;;;;;;;;20.90;91.70;;;;;;6216977;23;19900;-85
2023/07/10 01:14:56;;;;;;;;;;;20.90;91.50;;;;;;6215786;23;19904;-84
2023/07/10 01:17:22;;;;;;;;;;;20.90;91.80;;;;;;6216380;23;19915;-85
2023/07/10 01:19:48;;;;;;;;;;;20.90;91.60;;;;;;6215044;23;20318;-82
2023/07/10 01:22:14;;;;;;;;;;;20.90;91.70;;;;;;6215182;23;19908;-84
2023/07/10 01:24:39;;;;;;;;;;;20.90;91.70;;;;;;6215047;23;19908;-85
2023/07/10 01:27:06;;;;;;;;;;;20.90;91.80;;;;;;6217312;23;20647;-85
2023/07/10 01:29:35;;;;;;;;;;;21.00;91.80;;;;;;6217158;23;19907;-86
2023/07/10 01:32:00;;;;;;;;;;;21.00;92.00;;;;;;6215083;23;19950;-85
2023/07/10 01:34:31;;;;;;;;;;;20.90;91.70;;;;;;6216462;23;19903;-83
2023/07/10 01:36:57;;;;;;;;;;;21.00;91.70;;;;;;6214582;23;20382;-83
2023/07/10 01:39:40;;;;;;;;;;;21.00;91.70;;;;;;6215002;23;19910;-85
2023/07/10 01:42:06;;;;;;;;;;;21.00;91.80;;;;;;6214755;23;19900;-84
2023/07/10 01:44:33;;;;;;;;;;;21.00;91.70;;;;;;6214381;23;20285;-83
2023/07/10 01:46:59;;;;;;;;;;;21.00;91.80;;;;;;6214714;23;19903;-84
2023/07/10 01:49:29;;;;;;;;;;;21.00;91.80;;;;;;6214111;23;20219;-84
2023/07/10 01:51:55;;;;;;;;;;;21.00;91.90;;;;;;6214629;23;19907;-86
2023/07/10 01:54:21;;;;;;;;;;;21.00;91.90;;;;;;6216227;23;19904;-83
2023/07/10 01:56:47;;;;;;;;;;;21.00;92.00;;;;;;6216207;23;19907;-83
2023/07/10 01:59:12;;;;;;;;;;;21.00;92.10;;;;;;6214899;23;19900;-83
2023/07/10 02:01:54;;;;;;;;;;;21.00;92.10;;;;;;6214932;23;19911;-84
2023/07/10 02:04:19;;;;;;;;;;;21.00;92.10;;;;;;6215498;23;19899;-85
2023/07/10 02:06:45;;;;;;;;;;;21.00;92.30;;;;;;6215275;23;19904;-84
2023/07/10 02:09:10;;;;;;;;;;;21.00;92.40;;;;;;6215562;23;20211;-83
2023/07/10 02:11:37;;;;;;;;;;;21.00;92.40;;;;;;6214819;23;19911;-84
2023/07/10 02:14:04;;;;;;;;;;;20.90;92.40;;;;;;6214652;23;19900;-84
2023/07/10 02:16:29;;;;;;;;;;;21.00;92.50;;;;;;6214611;23;20384;-86
2023/07/10 02:18:55;;;;;;;;;;;20.90;92.50;;;;;;6214115;23;19986;-86
2023/07/10 02:21:20;;;;;;;;;;;20.90;92.50;;;;;;6214686;23;19904;-84
2023/07/10 02:23:47;;;;;;;;;;;21.00;92.60;;;;;;6214657;23;19900;-84
2023/07/10 02:26:13;;;;;;;;;;;20.90;92.50;;;;;;6217001;23;19903;-83
2023/07/10 02:28:39;;;;;;;;;;;20.90;92.60;;;;;;6216566;23;19907;-83
2023/07/10 02:31:05;;;;;;;;;;;20.90;92.70;;;;;;6213795;23;19903;-84
2023/07/10 02:33:31;;;;;;;;;;;20.90;92.60;;;;;;6215109;23;20318;-85
2023/07/10 02:35:56;;;;;;;;;;;20.90;92.70;;;;;;6214627;23;19915;-84
2023/07/10 02:38:22;;;;;;;;;;;20.90;92.60;;;;;;6216077;23;20291;-83
2023/07/10 02:40:47;;;;;;;;;;;20.90;92.70;;;;;;6213680;23;19919;-84
2023/07/10 02:43:13;;;;;;;;;;;20.90;92.70;;;;;;6213130;23;19908;-83
2023/07/10 02:45:38;;;;;;;;;;;20.90;92.70;;;;;;6213311;23;19908;-83
2023/07/10 02:48:04;;;;;;;;;;;20.90;92.70;;;;;;6213186;23;19985;-83
2023/07/10 02:50:29;;;;;;;;;;;20.90;92.70;;;;;;6214418;23;20234;-83
2023/07/10 02:52:54;;;;;;;;;;;20.90;92.80;;;;;;6214360;23;20322;-83
2023/07/10 02:55:20;;;;;;;;;;;20.90;92.70;;;;;;6213957;23;19907;-83
2023/07/10 02:57:45;;;;;;;;;;;21.00;92.90;;;;;;6212971;23;19914;-88
2023/07/10 03:00:11;;;;;;;;;;;20.90;93.00;;;;;;6212888;23;19904;-82
2023/07/10 03:02:37;;;;;;;;;;;21.00;92.80;;;;;;6214366;23;19904;-84
2023/07/10 03:05:02;;;;;;;;;;;21.00;92.70;;;;;;6213448;23;19904;-83
2023/07/10 03:07:28;;;;;;;;;;;20.90;92.70;;;;;;6215248;23;19958;-88
2023/07/10 03:09:53;;;;;;;;;;;21.00;92.70;;;;;;6213276;23;19903;-86
2023/07/10 03:12:21;;;;;;;;;;;21.00;92.60;;;;;;6213266;23;19900;-84
2023/07/10 03:14:47;;;;;;;;;;;21.00;92.50;;;;;;6212020;23;19904;-85
2023/07/10 03:17:12;;;;;;;;;;;21.00;92.70;;;;;;6213574;23;19990;-84
2023/07/10 03:19:37;;;;;;;;;;;21.00;92.80;;;;;;6212735;23;19992;-85
2023/07/10 03:22:03;;;;;;;;;;;21.00;92.70;;;;;;6216806;23;19936;-84
2023/07/10 03:24:28;;;;;;;;;;;21.00;92.60;;;;;;6212319;23;20238;-86
2023/07/10 03:26:54;;;;;;;;;;;21.00;92.60;;;;;;6218112;23;19907;-86
2023/07/10 03:29:19;;;;;;;;;;;21.00;92.70;;;;;;6216336;23;19900;-85
2023/07/10 03:31:45;;;;;;;;;;;21.00;92.70;;;;;;6217554;23;19927;-87
2023/07/10 03:34:13;;;;;;;;;;;21.00;92.70;;;;;;6216071;23;19904;-84
2023/07/10 03:36:39;;;;;;;;;;;21.20;92.80;;;;;;6218256;23;20337;-87
2023/07/10 03:39:05;;;;;;;;;;;21.00;92.80;;;;;;6216283;23;19899;-84
2023/07/10 03:41:31;;;;;;;;;;;21.00;92.90;;;;;;6215297;23;19907;-86
2023/07/10 03:43:57;;;;;;;;;;;20.90;92.90;;;;;;6217292;23;19989;-87
2023/07/10 03:46:22;;;;;;;;;;;21.00;92.90;;;;;;6215378;23;19911;-86
2023/07/10 03:48:48;;;;;;;;;;;20.90;93.00;;;;;;6215812;23;19903;-85
2023/07/10 03:51:14;;;;;;;;;;;20.90;93.10;;;;;;6217907;23;19911;-84
2023/07/10 03:53:39;;;;;;;;;;;20.90;93.00;;;;;;6215334;23;19907;-87
2023/07/10 03:56:05;;;;;;;;;;;20.90;93.00;;;;;;6217857;23;19951;-85
2023/07/10 03:58:32;;;;;;;;;;;20.90;93.10;;;;;;6215558;23;19908;-85
2023/07/10 04:00:59;;;;;;;;;;;20.90;93.10;;;;;;6216953;23;19900;-86
2023/07/10 04:03:25;;;;;;;;;;;20.90;93.10;;;;;;6214067;23;19934;-86
2023/07/10 04:05:57;;;;;;;;;;;20.90;93.10;;;;;;6215295;23;19927;-84
2023/07/10 04:08:43;;;;;;;;;;;20.90;93.40;;;;;;6215616;23;19904;-89
2023/07/10 04:11:10;;;;;;;;;;;20.90;93.20;;;;;;6214291;23;20227;-86
2023/07/10 04:13:36;;;;;;;;;;;20.90;93.10;;;;;;6214888;23;20353;-84
2023/07/10 04:16:03;;;;;;;;;;;20.90;93.00;;;;;;6214334;23;19908;-84
2023/07/10 04:18:33;;;;;;;;;;;20.90;93.10;;;;;;6216658;23;19904;-84
2023/07/10 04:20:59;;;;;;;;;;;20.90;93.10;;;;;;6215194;23;19935;-89
2023/07/10 04:23:25;;;;;;;;;;;20.90;93.10;;;;;;6214832;23;19946;-83
2023/07/10 04:25:50;;;;;;;;;;;20.90;93.20;;;;;;6214667;23;19904;-85
2023/07/10 04:28:16;;;;;;;;;;;20.90;93.10;;;;;;6216639;23;20373;-83
2023/07/10 04:30:41;;;;;;;;;;;20.90;93.20;;;;;;6214442;23;19929;-84
2023/07/10 04:33:09;;;;;;;;;;;20.90;93.20;;;;;;6213529;23;19904;-84
2023/07/10 04:35:35;;;;;;;;;;;20.90;93.10;;;;;;6212839;23;20677;-85
2023/07/10 04:38:03;;;;;;;;;;;20.90;93.10;;;;;;6218830;23;19900;-85
2023/07/10 04:40:28;;;;;;;;;;;20.90;93.00;;;;;;6219887;23;19906;-85
2023/07/10 04:42:54;;;;;;;;;;;21.00;93.20;;;;;;6221821;23;19900;-83
2023/07/10 04:45:20;;;;;;;;;;;21.00;92.90;;;;;;6212463;23;19915;-83
2023/07/10 04:47:45;;;;;;;;;;;21.00;92.80;;;;;;6213845;23;19900;-85
2023/07/10 04:50:11;;;;;;;;;;;21.00;92.80;;;;;;6213828;23;19915;-83
2023/07/10 04:52:36;;;;;;;;;;;21.00;92.80;;;;;;6213548;23;19962;-84
2023/07/10 04:55:02;;;;;;;;;;;21.00;92.80;;;;;;6214164;23;19907;-87
2023/07/10 04:57:28;;;;;;;;;;;21.00;92.80;;;;;;6214295;23;19939;-84
2023/07/10 04:59:53;;;;;;;;;;;21.00;92.80;;;;;;6213762;23;19914;-84
2023/07/10 05:02:19;;;;;;;;;;;21.00;92.80;;;;;;6212786;23;19908;-84
2023/07/10 05:04:44;;;;;;;;;;;21.00;92.80;;;;;;6212981;23;19911;-84
2023/07/10 05:07:09;;;;;;;;;;;21.00;92.90;;;;;;6217756;23;19907;-85
2023/07/10 05:09:35;;;;;;;;;;;21.00;92.80;;;;;;6219622;23;20360;-83
2023/07/10 05:12:00;;;;;;;;;;;20.90;92.90;;;;;;6214231;23;19930;-83
2023/07/10 05:14:26;;;;;;;;;;;21.00;93.00;;;;;;6217089;23;20257;-85
2023/07/10 05:16:51;;;;;;;;;;;21.00;93.10;;;;;;6212971;23;20090;-85
2023/07/10 05:19:17;;;;;;;;;;;20.90;93.10;;;;;;6212204;23;19999;-83
2023/07/10 05:21:43;;;;;;;;;;;20.90;93.10;;;;;;6213374;23;19907;-84
2023/07/10 05:24:08;;;;;;;;;;;20.90;93.10;;;;;;6214187;23;20315;-87
2023/07/10 05:26:33;;;;;;;;;;;20.90;93.10;;;;;;6212219;23;19915;-84
2023/07/10 05:28:59;;;;;;;;;;;20.90;93.20;;;;;;6214050;23;19899;-85
2023/07/10 05:31:25;;;;;;;;;;;20.90;93.20;;;;;;6215617;23;19958;-86
2023/07/10 05:33:50;;;;;;;;;;;20.90;93.20;;;;;;6219408;23;19983;-83
2023/07/10 05:36:16;;;;;;;;;;;20.90;93.20;;;;;;6219534;23;19914;-82
2023/07/10 05:38:42;;;;;;;;;;;20.90;93.20;;;;;;6216576;23;19904;-83
2023/07/10 05:41:08;;;;;;;;;;;20.80;93.20;;;;;;6219329;23;20326;-80
2023/07/10 05:43:34;;;;;;;;;;;20.90;93.30;;;;;;6215046;23;19907;-80
2023/07/10 05:45:59;;;;;;;;;;;20.90;93.30;;;;;;6217025;23;19931;-80
2023/07/10 05:48:25;;;;;;;;;;;20.90;93.30;;;;;;6215686;23;19900;-79
2023/07/10 05:50:50;;;;;;;;;;;20.90;93.30;;;;;;6214964;23;19904;-79
2023/07/10 05:53:16;;;;;;;;;;;20.90;93.30;;;;;;6216713;23;19903;-80
2023/07/10 05:55:43;;;;;;;;;;;20.90;93.40;;;;;;6215551;23;19903;-80
2023/07/10 05:58:08;;;;;;;;;;;20.90;93.40;;;;;;6215478;23;19926;-84
2023/07/10 06:00:33;;;;;;;;;;;20.90;93.50;;;;;;6217149;23;20329;-80
2023/07/10 06:02:59;;;;;;;;;;;20.90;93.60;;;;;;6213993;23;19953;-84
2023/07/10 06:05:24;;;;;;;;;;;20.90;93.70;;;;;;6216412;23;19935;-80
2023/07/10 06:07:50;;;;;;;;;;;20.90;93.70;;;;;;6215744;23;19908;-80
2023/07/10 06:10:15;;;;;;;;;;;20.90;93.80;;;;;;6215785;23;19899;-79
2023/07/10 06:12:41;;;;;;;;;;;20.90;93.80;;;;;;6215553;23;19900;-80
2023/07/10 06:15:07;;;;;;;;;;;21.00;93.80;;;;;;6216864;23;19911;-79
2023/07/10 06:17:33;;;;;;;;;;;21.00;93.80;;;;;;6216100;23;19904;-79
2023/07/10 06:19:58;;;;;;;;;;;21.10;93.80;;;;;;6216879;23;20269;-79
2023/07/10 06:22:23;;;;;;;;;;;21.00;93.80;;;;;;6216447;23;19931;-79
2023/07/10 06:24:49;;;;;;;;;;;21.00;93.80;;;;;;6215431;23;19966;-80
2023/07/10 06:27:14;;;;;;;;;;;21.00;93.90;;;;;;6215516;23;19954;-80
2023/07/10 06:29:40;;;;;;;;;;;21.00;93.80;;;;;;6216651;23;19958;-79
2023/07/10 06:32:05;;;;;;;;;;;21.00;93.80;;;;;;6214141;23;19947;-80
2023/07/10 06:34:31;;;;;;;;;;;21.00;93.90;;;;;;6215452;23;19910;-81
2023/07/10 06:36:56;;;;;;;;;;;21.00;93.90;;;;;;6215152;23;20215;-80
2023/07/10 06:39:22;;;;;;;;;;;21.00;93.90;;;;;;6214862;23;19906;-81
2023/07/10 06:41:47;;;;;;;;;;;21.00;93.90;;;;;;6212402;23;19904;-80
2023/07/10 06:44:14;;;;;;;;;;;21.00;94.00;;;;;;6215059;23;19950;-81
2023/07/10 06:46:40;;;;;;;;;;;21.00;94.00;;;;;;6213045;23;19982;-80
2023/07/10 06:49:05;;;;;;;;;;;21.00;94.00;;;;;;6214216;23;20215;-80
2023/07/10 06:51:30;;;;;;;;;;;20.90;94.00;;;;;;6214200;23;19983;-80
2023/07/10 06:53:56;;;;;;;;;;;21.00;94.10;;;;;;6215416;23;19911;-80
2023/07/10 06:56:21;;;;;;;;;;;20.90;94.00;;;;;;6214185;23;19915;-81
2023/07/10 06:58:47;;;;;;;;;;;20.90;93.80;;;;;;6214679;23;19900;-80
2023/07/10 07:01:12;;;;;;;;;;;20.90;93.80;;;;;;6214543;23;19970;-80
2023/07/10 07:03:40;;;;;;;;;;;21.00;93.80;;;;;;6214530;23;19957;-80
2023/07/10 07:06:06;;;;;;;;;;;21.00;93.70;;;;;;6213000;23;20527;-81
2023/07/10 07:08:32;;;;;;;;;;;21.00;93.80;;;;;;6213942;23;19954;-82
2023/07/10 07:10:57;;;;;;;;;;;21.00;93.80;;;;;;6219743;23;19904;-81
2023/07/10 07:13:22;;;;;;;;;;;20.90;93.70;;;;;;6214559;23;19900;-80
2023/07/10 07:15:52;;;;;;;;;;;20.90;93.80;;;;;;6215431;23;19907;-80
2023/07/10 07:18:17;;;;;;;;;;;20.90;94.10;;;;;;6218080;23;19910;-81
2023/07/10 07:20:43;;;;;;;;;;;20.90;94.10;;;;;;6217228;23;19908;-79
2023/07/10 07:23:08;;;;;;;;;;;21.00;93.90;;;;;;6216573;23;19910;-80
2023/07/10 07:25:33;;;;;;;;;;;20.90;94.10;;;;;;6215748;23;20046;-81
2023/07/10 07:27:59;;;;;;;;;;;20.90;94.10;;;;;;6215944;23;19926;-82
2023/07/10 07:30:25;;;;;;;;;;;20.90;94.00;;;;;;6216590;23;19911;-81
2023/07/10 07:32:50;;;;;;;;;;;20.90;94.10;;;;;;6215996;23;19910;-80
2023/07/10 07:35:16;;;;;;;;;;;20.90;94.00;;;;;;6215978;23;19964;-80
2023/07/10 07:37:41;;;;;;;;;;;20.90;94.00;;;;;;6217368;23;19908;-80
2023/07/10 07:40:09;;;;;;;;;;;20.90;93.90;;;;;;6216480;23;19904;-80
2023/07/10 07:42:35;;;;;;;;;;;20.90;93.90;;;;;;6215872;23;19903;-81
2023/07/10 07:45:00;;;;;;;;;;;20.90;93.90;;;;;;6215974;23;19908;-80
2023/07/10 07:47:26;;;;;;;;;;;20.90;93.90;;;;;;6216946;23;19990;-80
2023/07/10 07:49:53;;;;;;;;;;;21.00;93.80;;;;;;6216708;23;19922;-80
2023/07/10 07:52:18;;;;;;;;;;;21.00;93.60;;;;;;6215774;23;19928;-80
2023/07/10 07:54:44;;;;;;;;;;;21.00;93.50;;;;;;6216243;23;19900;-80
2023/07/10 07:57:09;;;;;;;;;;;21.00;93.40;;;;;;6216567;23;20382;-80
2023/07/10 07:59:34;;;;;;;;;;;21.00;93.30;;;;;;6218198;23;20325;-80
2023/07/10 08:02:00;;;;;;;;;;;21.00;93.20;;;;;;6215968;23;20353;-80
2023/07/10 08:04:25;;;;;;;;;;;21.10;93.10;;;;;;6216507;23;19908;-80
2023/07/10 08:06:51;;;;;;;;;;;21.20;93.10;;;;;;6216748;23;19952;-80
2023/07/10 08:09:16;;;;;;;;;;;21.20;93.00;;;;;;6216706;23;19911;-81
2023/07/10 08:11:42;;;;;;;;;;;21.20;92.90;;;;;;6219748;23;19997;-80
2023/07/10 08:14:07;;;;;;;;;;;21.40;92.80;;;;;;6218535;23;19948;-80
2023/07/10 08:16:32;;;;;;;;;;;21.20;92.70;;;;;;6219122;23;19904;-80
2023/07/10 08:18:58;;;;;;;;;;;21.20;92.60;;;;;;6219801;23;19904;-80
2023/07/10 08:21:23;;;;;;;;;;;21.20;92.60;;;;;;6218117;23;19962;-79
2023/07/10 08:23:49;;;;;;;;;;;21.20;92.60;;;;;;6219923;23;19904;-80
2023/07/10 08:26:14;;;;;;;;;;;21.10;92.60;;;;;;6218590;23;19903;-80
2023/07/10 08:28:40;;;;;;;;;;;21.50;92.80;;;;;;6219014;23;19903;-80
2023/07/10 08:31:06;;;;;;;;;;;21.10;92.60;;;;;;6218316;23;19899;-79
2023/07/10 08:33:31;;;;;;;;;;;21.10;92.60;;;;;;6218325;23;20238;-81
2023/07/10 08:35:58;;;;;;;;;;;21.10;92.60;;;;;;6218258;23;19904;-80
2023/07/10 08:38:23;;;;;;;;;;;21.10;92.60;;;;;;6218634;23;19924;-80
2023/07/10 08:40:50;;;;;;;;;;;21.10;92.40;;;;;;6217544;23;19911;-80
2023/07/10 08:43:22;;;;;;;;;;;21.20;92.50;;;;;;6218424;23;19978;-81
2023/07/10 08:45:47;;;;;;;;;;;21.10;92.30;;;;;;6220885;23;19966;-80
2023/07/10 08:48:29;;;;;;;;;;;20.50;92.10;;;;;;6218190;23;19904;-81
2023/07/10 08:50:57;;;;;;;;;;;21.10;92.20;;;;;;6218392;23;19926;-80
2023/07/10 08:53:24;;;;;;;;;;;21.10;92.10;;;;;;6219486;23;19938;-80
2023/07/10 08:55:49;;;;;;;;;;;21.10;92.10;;;;;;6220287;23;19904;-80
2023/07/10 08:58:20;;;;;;;;;;;21.10;92.00;;;;;;6220071;23;19903;-81
2023/07/10 09:00:48;;;;;;;;;;;21.10;91.90;;;;;;6217099;23;19907;-80
2023/07/10 09:03:35;;;;;;;;;;;21.20;91.90;;;;;;6217987;23;19990;-80
2023/07/10 09:06:03;;;;;;;;;;;21.10;91.80;;;;;;6218852;23;19900;-80
2023/07/10 09:08:30;;;;;;;;;;;21.10;91.80;;;;;;6220373;23;20314;-80
2023/07/10 09:10:57;;;;;;;;;;;21.10;91.80;;;;;;6219143;23;20219;-81
2023/07/10 09:13:43;;;;;;;;;;;21.20;91.80;;;;;;6218480;23;20204;-80
2023/07/10 09:16:16;;;;;;;;;;;21.20;91.70;;;;;;6217349;23;19923;-80
2023/07/10 09:18:42;;;;;;;;;;;21.20;91.60;;;;;;6217300;23;19974;-85
2023/07/10 09:21:16;;;;;;;;;;;21.30;91.50;;;;;;6207884;23;19903;-88
2023/07/10 09:23:42;;;;;;;;;;;21.40;91.40;;;;;;6213175;23;20050;-84
2023/07/10 09:26:12;;;;;;;;;;;21.40;91.30;;;;;;6213326;23;19899;-85
2023/07/10 09:28:38;;;;;;;;;;;21.40;91.20;;;;;;6213270;23;19900;-87
2023/07/10 09:31:23;;;;;;;;;;;21.40;91.10;;;;;;6213768;23;20246;-84
2023/07/10 09:33:53;;;;;;;;;;;21.50;90.90;;;;;;6214569;23;20343;-86
2023/07/10 09:36:19;;;;;;;;;;;21.50;90.80;;;;;;6214813;23;19904;-86
2023/07/10 09:38:46;;;;;;;;;;;21.50;90.60;;;;;;6214178;23;19922;-85
2023/07/10 09:41:13;;;;;;;;;;;21.60;90.50;;;;;;6216859;23;20315;-85
2023/07/10 09:43:47;;;;;;;;;;;21.50;90.40;;;;;;6214843;23;19924;-85
2023/07/10 09:46:13;;;;;;;;;;;21.50;90.30;;;;;;6217548;23;19908;-86
2023/07/10 09:48:38;;;;;;;;;;;21.60;90.30;;;;;;6215119;23;19907;-86
2023/07/10 09:51:06;;;;;;;;;;;21.50;90.20;;;;;;6217352;23;19911;-86
2023/07/10 09:53:31;;;;;;;;;;;21.50;90.10;;;;;;6218778;23;19992;-87
2023/07/10 09:55:56;;;;;;;;;;;21.50;90.10;;;;;;6219987;23;19912;-87
2023/07/10 09:58:22;;;;;;;;;;;21.50;90.00;;;;;;6217699;23;19900;-86
2023/07/10 10:00:48;;;;;;;;;;;21.50;90.00;;;;;;6217564;23;19906;-86
2023/07/10 10:03:17;;;;;;;;;;;21.50;90.00;;;;;;6216498;23;19915;-85
2023/07/10 10:05:42;;;;;;;;;;;21.60;90.00;;;;;;6216898;23;19904;-88
2023/07/10 10:08:16;;;;;;;;;;;21.60;89.90;;;;;;6217858;23;20418;-87
2023/07/10 10:10:42;;;;;;;;;;;21.60;89.90;;;;;;6217275;23;20314;-86
2023/07/10 10:13:26;;;;;;;;;;;21.60;89.80;;;;;;6216979;23;19911;-86
2023/07/10 10:16:03;;;;;;;;;;;21.70;89.90;;;;;;6220907;23;19900;-87
2023/07/10 10:18:31;;;;;;;;;;;21.60;89.70;;;;;;6218938;23;19954;-88
2023/07/10 10:20:58;;;;;;;;;;;21.60;89.60;;;;;;6214708;23;19904;-84
2023/07/10 10:23:29;;;;;;;;;;;21.60;89.50;;;;;;6216233;23;19900;-85
2023/07/10 10:26:00;;;;;;;;;;;21.70;89.40;;;;;;6218151;23;19900;-86
2023/07/10 10:28:37;;;;;;;;;;;21.60;89.20;;;;;;6218171;23;20327;-85
2023/07/10 10:31:07;;;;;;;;;;;21.70;89.10;;;;;;6216109;23;19927;-85
2023/07/10 10:33:39;;;;;;;;;;;21.70;89.00;;;;;;6216788;23;19911;-86
2023/07/10 10:36:25;;;;;;;;;;;21.70;88.90;;;;;;6215756;23;19927;-86
2023/07/10 10:39:17;;;;;;;;;;;21.70;88.80;;;;;;6216505;23;20306;-88
2023/07/10 10:41:42;;;;;;;;;;;21.70;88.50;;;;;;6215730;23;19903;-86
2023/07/10 10:44:07;;;;;;;;;;;21.70;88.40;;;;;;6217024;23;19994;-87
2023/07/10 10:46:49;;;;;;;;;;;21.70;88.40;;;;;;6214857;23;19911;-85
2023/07/10 10:49:21;;;;;;;;;;;21.70;88.40;;;;;;6216326;23;19919;-84
2023/07/10 10:51:55;;;;;;;;;;;21.70;88.40;;;;;;6214742;23;19923;-87
2023/07/10 10:54:27;;;;;;;;;;;21.70;88.10;;;;;;6214253;23;19986;-82
2023/07/10 10:56:59;;;;;;;;;;;21.80;87.90;;;;;;6212895;23;19908;-86
2023/07/10 10:59:51;;;;;;;;;;;21.80;87.60;;;;;;6215508;23;19935;-84
2023/07/10 11:02:27;;;;;;;;;;;21.80;87.30;;;;;;6156612;23;19974;-83
2023/07/10 11:05:02;;;;;;;;;;;21.80;87.10;;;;;;6213502;23;19906;-85
2023/07/10 11:07:28;;;;;;;;;;;21.90;86.90;;;;;;6215303;23;19907;-83
2023/07/10 11:10:01;;;;;;;;;;;21.90;86.70;;;;;;6215707;23;19908;-84
2023/07/10 11:12:31;;;;;;;;;;;21.90;86.50;;;;;;6214201;23;19903;-88
2023/07/10 11:14:59;;;;;;;;;;;21.90;86.50;;;;;;6214778;23;19931;-85
2023/07/10 11:17:25;;;;;;;;;;;21.90;86.50;;;;;;6215254;23;19907;-85
2023/07/10 11:19:51;;;;;;;;;;;21.90;86.50;;;;;;6213410;23;20643;-83
2023/07/10 11:22:21;;;;;;;;;;;21.90;86.50;;;;;;6212764;23;19900;-85
2023/07/10 11:24:48;;;;;;;;;;;21.90;86.40;;;;;;6212808;23;20397;-83
2023/07/10 11:27:19;;;;;;;;;;;21.90;86.60;;;;;;6213295;23;20353;-82
2023/07/10 11:29:52;;;;;;;;;;;21.80;86.30;;;;;;6210811;23;20449;-83
2023/07/10 11:32:18;;;;;;;;;;;22.00;86.30;;;;;;6213404;23;20277;-85
2023/07/10 11:34:54;;;;;;;;;;;21.80;86.00;;;;;;6214700;23;19910;-86
2023/07/10 11:37:38;;;;;;;;;;;21.80;85.90;;;;;;6213892;23;19919;-84
2023/07/10 11:40:23;;;;;;;;;;;21.80;85.80;;;;;;6213243;23;19908;-87
2023/07/10 11:42:48;;;;;;;;;;;21.80;85.90;;;;;;6215575;23;19903;-84
2023/07/10 11:45:14;;;;;;;;;;;21.80;86.00;;;;;;6214124;23;20254;-84
2023/07/10 11:47:41;;;;;;;;;;;21.70;86.10;;;;;;6215088;23;19900;-84
2023/07/10 11:50:26;;;;;;;;;;;21.70;86.30;;;;;;6216494;23;19903;-90
2023/07/10 11:53:21;;;;;;;;;;;21.70;86.30;;;;;;6218578;23;19927;-86
2023/07/10 11:56:05;;;;;;;;;;;21.70;86.40;;;;;;6217920;23;19923;-85
2023/07/10 11:58:33;;;;;;;;;;;21.70;86.40;;;;;;6218189;23;20235;-84
2023/07/10 12:01:12;;;;;;;;;;;21.70;86.80;;;;;;6218871;23;19931;-88
2023/07/10 12:03:39;;;;;;;;;;;21.70;86.40;;;;;;6220455;23;19915;-84
2023/07/10 12:06:13;;;;;;;;;;;21.70;86.40;;;;;;6218343;23;19990;-85
2023/07/10 12:08:38;;;;;;;;;;;21.70;86.50;;;;;;6218843;23;20219;-88
2023/07/10 12:11:04;;;;;;;;;;;21.70;86.50;;;;;;6220305;23;19982;-84
2023/07/10 12:13:30;;;;;;;;;;;21.70;86.70;;;;;;6217614;23;19904;-84
2023/07/10 12:16:05;;;;;;;;;;;21.70;86.80;;;;;;6218007;23;19907;-85
2023/07/10 12:18:32;;;;;;;;;;;21.70;86.90;;;;;;6217658;23;19942;-87
2023/07/10 12:20:59;;;;;;;;;;;21.70;86.90;;;;;;6218408;23;19904;-84
2023/07/10 12:23:24;;;;;;;;;;;21.70;87.10;;;;;;6218512;23;19954;-86
2023/07/10 12:25:51;;;;;;;;;;;21.70;87.10;;;;;;6218704;23;19903;-85
2023/07/10 12:28:18;;;;;;;;;;;21.70;87.10;;;;;;6217768;23;20354;-84
2023/07/10 12:30:46;;;;;;;;;;;21.80;87.10;;;;;;6219801;23;19904;-85
2023/07/10 12:33:41;;;;;;;;;;;21.80;86.90;;;;;;6219984;23;19950;-86
2023/07/10 12:36:19;;;;;;;;;;;21.80;86.90;;;;;;6171972;23;19903;-85
2023/07/10 12:38:45;;;;;;;;;;;21.80;86.70;;;;;;6218597;23;20384;-84
2023/07/10 12:41:11;;;;;;;;;;;21.90;86.80;;;;;;6219919;23;19904;-85
2023/07/10 12:43:36;;;;;;;;;;;21.90;86.70;;;;;;6218168;23;19900;-85
2023/07/10 12:46:11;;;;;;;;;;;21.80;86.70;;;;;;6217882;23;19990;-85
2023/07/10 12:48:37;;;;;;;;;;;21.90;86.70;;;;;;6220664;23;19987;-85
2023/07/10 12:51:05;;;;;;;;;;;21.90;86.80;;;;;;6219266;23;20334;-84
2023/07/10 12:53:32;;;;;;;;;;;21.80;86.70;;;;;;6217625;23;19934;-85
2023/07/10 12:56:04;;;;;;;;;;;21.90;86.90;;;;;;6216822;23;20355;-85
2023/07/10 12:58:30;;;;;;;;;;;21.80;86.80;;;;;;6219307;23;20315;-84
2023/07/10 13:01:14;;;;;;;;;;;21.80;87.00;;;;;;6217939;23;19924;-85
2023/07/10 13:03:40;;;;;;;;;;;21.80;87.10;;;;;;6218252;23;19904;-87
2023/07/10 13:06:06;;;;;;;;;;;21.70;87.20;;;;;;6225038;23;19952;-86
2023/07/10 13:08:33;;;;;;;;;;;21.70;87.30;;;;;;6222006;23;19907;-84
2023/07/10 13:10:59;;;;;;;;;;;21.70;87.50;;;;;;6223001;23;19904;-86
2023/07/10 13:13:25;;;;;;;;;;;22.00;87.70;;;;;;6221961;23;20330;-86
2023/07/10 13:15:51;;;;;;;;;;;21.70;87.60;;;;;;6217491;23;19923;-87
2023/07/10 13:18:24;;;;;;;;;;;21.70;87.70;;;;;;6218213;23;19904;-85
2023/07/10 13:20:50;;;;;;;;;;;21.70;87.70;;;;;;6220981;23;19900;-84
2023/07/10 13:23:16;;;;;;;;;;;21.80;87.90;;;;;;6220976;23;19927;-84
2023/07/10 13:25:41;;;;;;;;;;;21.70;87.90;;;;;;6220530;23;19900;-84
2023/07/10 13:28:15;;;;;;;;;;;21.70;87.90;;;;;;6218492;23;19903;-85
2023/07/10 13:30:41;;;;;;;;;;;21.70;88.00;;;;;;6218848;23;19910;-84
2023/07/10 13:33:21;;;;;;;;;;;21.80;88.10;;;;;;6220130;23;19935;-84
2023/07/10 13:35:47;;;;;;;;;;;21.70;88.10;;;;;;6221311;23;19904;-83
2023/07/10 13:38:14;;;;;;;;;;;21.70;88.10;;;;;;6221201;23;19914;-83
2023/07/10 13:40:39;;;;;;;;;;;21.70;88.10;;;;;;6221153;23;19935;-86
2023/07/10 13:43:13;;;;;;;;;;;21.60;88.00;;;;;;6219412;23;19904;-86
2023/07/10 13:45:39;;;;;;;;;;;21.70;88.10;;;;;;6215668;23;19915;-85
2023/07/10 13:48:15;;;;;;;;;;;21.60;88.10;;;;;;6215175;23;20424;-84
2023/07/10 13:50:41;;;;;;;;;;;21.60;88.10;;;;;;6216289;23;19922;-84
2023/07/10 13:53:09;;;;;;;;;;;21.60;88.20;;;;;;6215822;23;19899;-86
2023/07/10 13:55:35;;;;;;;;;;;21.70;88.20;;;;;;6215906;23;19900;-84
2023/07/10 13:58:00;;;;;;;;;;;21.60;88.20;;;;;;6216228;23;19915;-82
2023/07/10 14:00:26;;;;;;;;;;;21.60;88.20;;;;;;6215977;23;19927;-86
2023/07/10 14:02:51;;;;;;;;;;;21.70;88.10;;;;;;6216982;23;19904;-82
2023/07/10 14:05:18;;;;;;;;;;;21.70;88.00;;;;;;6215823;23;19903;-85
2023/07/10 14:07:44;;;;;;;;;;;21.70;87.80;;;;;;6214109;23;19957;-85
2023/07/10 14:10:17;;;;;;;;;;;21.70;87.80;;;;;;6217281;23;20465;-85
2023/07/10 14:12:42;;;;;;;;;;;21.70;87.70;;;;;;6214282;23;19903;-83
2023/07/10 14:15:12;;;;;;;;;;;21.70;87.50;;;;;;6215253;23;19908;-84
2023/07/10 14:17:37;;;;;;;;;;;21.70;87.50;;;;;;6214304;23;19928;-84
2023/07/10 14:20:04;;;;;;;;;;;21.80;87.50;;;;;;6218248;23;19900;-85